Airport Name : Andahuaylas

Other Name : Andahuaylas

ICAO : SPHY

IATA : ANS

FAA :

Latitude : -13.706408

Longitude : -73.350378

Country : Peru

Local Date and Time : 01 Dec 2020 12:52

 

TAF (Terminal Aerodrome Forecast)

SPHY 011310Z 0112/0212 36006KT 5000 BCFG BKN012 OVC050 TX16/0119Z TN08/0211Z FM011630 02010KT 8000 NSW SCT012 BKN050 TEMPO 0200/0202 RA

 

METAR (METeorological Aerodrome Report)

SPHY 011700Z 03005KT 8000 SCT012 BKN050 11/08 Q1036 RMK BIRD HAZARD RWY03/21 PP000

SPHY 011600Z 01008KT 8000 SCT012 BKN050 10/08 Q1036 RMK BIRD HAZARD RWY03/21 PP000

SPHY 011500Z 35006KT 8000 SCT012 BKN050 10/07 Q1037 RMK BIRD HAZARD RWY03/21 PP000

SPHY 011400Z 36008KT 5000 BCFG BKN012 OVC050 08/07 Q1038 RMK BIRD HAZARD RWY03/21 PP000

To Charter a Jet Click here.